Time;durP1;ratioP1;P1;durP2;ratioP2;P2;SDS_P1;SDS_P2;PMS_P1;PMS_P2;Temp;Humidity;BMP_temperature;BMP_pressure;BME280_temperature;BME280_humidity;BME280_pressure;Samples;Min_cycle;Max_cycle;Signal;HPM_P1;HPM_P2
2022/03/31 00:00:17;;;;;;;18.13;10.77;;;12.70;63.00;;;;;;5042152;28;20234;-93
2022/03/31 00:02:48;;;;;;;18.57;11.13;;;12.70;63.10;;;;;;5040933;28;20245;-94
2022/03/31 00:05:16;;;;;;;17.63;10.33;;;12.70;62.90;;;;;;5061943;28;20207;-93
2022/03/31 00:07:51;;;;;;;18.47;9.60;;;12.70;63.30;;;;;;5064615;28;20207;-93
2022/03/31 00:10:35;;;;;;;21.57;9.63;;;12.70;63.50;;;;;;5064669;28;20265;-96
2022/03/31 00:13:15;;;;;;;12.40;6.93;;;12.70;63.60;;;;;;5067397;28;20211;-96
2022/03/31 00:19:05;;;;;;;15.57;7.77;;;12.60;63.50;;;;;;5037691;28;20338;-94
2022/03/31 00:21:35;;;;;;;10.87;5.70;;;12.60;62.90;;;;;;5065038;28;20225;-94
2022/03/31 00:24:07;;;;;;;10.73;5.40;;;12.60;62.50;;;;;;5059184;28;20254;-90
2022/03/31 00:26:35;;;;;;;15.33;6.40;;;12.50;62.60;;;;;;5054236;28;20208;-94
2022/03/31 00:29:07;;;;;;;18.77;7.30;;;12.40;62.60;;;;;;5056747;28;20206;-93
2022/03/31 00:31:34;;;;;;;10.20;5.30;;;12.40;62.70;;;;;;5041029;28;20237;-95
2022/03/31 00:34:03;;;;;;;14.87;6.23;;;12.30;62.50;;;;;;5052093;28;20234;-94
2022/03/31 00:36:33;;;;;;;22.83;8.43;;;12.20;63.00;;;;;;5054166;28;20575;-92
2022/03/31 00:41:48;;;;;;;13.00;6.23;;;12.10;63.60;;;;;;5045994;28;20212;-94
2022/03/31 00:44:16;;;;;;;16.47;7.17;;;12.10;63.70;;;;;;5035096;28;20719;-93
2022/03/31 00:46:53;;;;;;;11.30;6.70;;;12.00;64.00;;;;;;5046027;28;20200;-94
2022/03/31 00:49:25;;;;;;;15.77;7.67;;;11.90;64.60;;;;;;5058203;28;20232;-95
2022/03/31 00:51:55;;;;;;;15.33;6.80;;;11.90;64.60;;;;;;5057331;28;20493;-95
2022/03/31 00:54:32;;;;;;;12.40;6.93;;;11.80;64.50;;;;;;5040974;28;20217;-96
2022/03/31 00:57:08;;;;;;;14.57;8.03;;;11.70;64.40;;;;;;5055288;28;20200;-94
2022/03/31 00:59:36;;;;;;;13.10;7.80;;;11.60;64.80;;;;;;5057645;28;20181;-93
2022/03/31 01:02:08;;;;;;;16.73;8.23;;;11.50;64.40;;;;;;5060447;28;20240;-94
2022/03/31 01:04:37;;;;;;;15.57;8.60;;;11.40;63.90;;;;;;5063979;28;20223;-95
2022/03/31 01:07:06;;;;;;;9.73;6.00;;;11.30;63.80;;;;;;5059539;28;20262;-95
2022/03/31 01:09:35;;;;;;;12.50;6.13;;;11.30;63.90;;;;;;5061289;28;20220;-95
2022/03/31 01:12:10;;;;;;;15.90;7.33;;;11.10;63.70;;;;;;5058335;28;20266;-95
2022/03/31 01:14:37;;;;;;;13.13;5.97;;;11.10;63.70;;;;;;5058200;28;20204;-92
2022/03/31 01:17:08;;;;;;;10.97;5.77;;;10.90;63.70;;;;;;5057912;28;20208;-95
2022/03/31 01:22:24;;;;;;;14.70;6.30;;;10.70;63.50;;;;;;5057915;28;20204;-95
2022/03/31 01:24:58;;;;;;;9.57;4.87;;;10.60;63.50;;;;;;5064912;28;20228;-95
2022/03/31 01:27:35;;;;;;;11.20;5.27;;;10.50;63.70;;;;;;5068300;28;20203;-92
2022/03/31 01:30:03;;;;;;;12.17;5.43;;;10.50;63.70;;;;;;5065509;28;20235;-95
2022/03/31 01:32:33;;;;;;;13.93;5.80;;;10.40;63.80;;;;;;5051576;28;20218;-93
2022/03/31 01:35:03;;;;;;;14.60;6.07;;;10.30;63.80;;;;;;5056199;28;20210;-94
2022/03/31 01:37:30;;;;;;;11.30;5.10;;;10.20;64.20;;;;;;5045990;28;20201;-94
2022/03/31 01:39:59;;;;;;;12.27;4.70;;;10.10;64.20;;;;;;5037745;28;20200;-90
2022/03/31 01:42:28;;;;;;;10.03;4.23;;;10.10;64.30;;;;;;5049223;28;20219;-95
2022/03/31 01:44:56;;;;;;;6.80;3.37;;;10.00;64.00;;;;;;5061842;28;20234;-96
2022/03/31 01:47:24;;;;;;;8.63;3.23;;;9.90;65.30;;;;;;5058615;28;20196;-96
2022/03/31 01:50:09;;;;;;;8.23;3.23;;;9.80;66.50;;;;;;5045869;28;20228;-96
2022/03/31 01:52:39;;;;;;;12.47;4.13;;;9.70;65.70;;;;;;5057208;28;20201;-91
2022/03/31 01:55:09;;;;;;;7.93;3.23;;;9.60;65.40;;;;;;5049377;28;20647;-93
2022/03/31 01:57:38;;;;;;;12.53;4.20;;;9.60;65.80;;;;;;5039988;28;20247;-95
2022/03/31 02:00:15;;;;;;;8.33;2.97;;;9.50;66.00;;;;;;5056042;28;20205;-94
2022/03/31 02:02:46;;;;;;;7.97;3.00;;;9.40;65.80;;;;;;5038848;28;20210;-93
2022/03/31 02:05:13;;;;;;;11.77;3.53;;;9.40;65.90;;;;;;5044060;28;20616;-96
2022/03/31 02:07:53;;;;;;;10.13;3.67;;;9.30;66.00;;;;;;5041037;28;20199;-95
2022/03/31 02:10:30;;;;;;;8.27;3.30;;;9.20;66.30;;;;;;5054896;28;20726;-96
2022/03/31 02:13:03;;;;;;;5.47;2.30;;;9.20;66.50;;;;;;5056430;28;20268;-96
2022/03/31 02:15:34;;;;;;;13.63;4.37;;;9.10;66.50;;;;;;5051736;28;20710;-94
2022/03/31 02:18:05;;;;;;;9.70;3.53;;;9.10;66.90;;;;;;5052646;28;20254;-96
2022/03/31 02:20:33;;;;;;;11.93;3.80;;;9.10;66.60;;;;;;5043346;28;20232;-92
2022/03/31 02:23:01;;;;;;;13.00;4.17;;;9.00;67.20;;;;;;5055310;28;20278;-92
2022/03/31 02:25:30;;;;;;;13.67;4.17;;;8.90;66.90;;;;;;5046697;28;20812;-95
2022/03/31 02:28:01;;;;;;;12.13;3.90;;;8.90;67.80;;;;;;5043980;28;20236;-94
2022/03/31 02:30:29;;;;;;;11.50;3.70;;;8.90;67.70;;;;;;5055152;28;20251;-92
2022/03/31 02:33:02;;;;;;;10.87;3.37;;;8.80;67.90;;;;;;5057386;28;20204;-92
2022/03/31 02:35:37;;;;;;;13.07;4.00;;;8.80;67.90;;;;;;5056268;28;20220;-94
2022/03/31 02:38:05;;;;;;;6.50;2.53;;;8.70;67.80;;;;;;5052554;28;20746;-93
2022/03/31 02:40:34;;;;;;;12.30;3.70;;;8.70;68.30;;;;;;5052956;28;20204;-92
2022/03/31 02:43:01;;;;;;;9.37;3.20;;;8.60;68.20;;;;;;5050097;28;20196;-92
2022/03/31 02:45:30;;;;;;;9.17;3.17;;;8.60;68.50;;;;;;5050339;28;20196;-94
2022/03/31 02:47:58;;;;;;;9.90;3.20;;;8.60;68.40;;;;;;5049897;28;20562;-95
2022/03/31 02:50:28;;;;;;;7.77;3.03;;;8.60;68.70;;;;;;5053968;28;20297;-94
2022/03/31 02:55:46;;;;;;;10.40;3.47;;;8.50;68.80;;;;;;5050372;28;20677;-95
2022/03/31 02:58:15;;;;;;;8.63;3.10;;;8.50;68.90;;;;;;5055760;28;20266;-95
2022/03/31 03:00:43;;;;;;;10.10;3.57;;;8.40;68.90;;;;;;5055452;28;20217;-96
2022/03/31 03:03:19;;;;;;;9.97;3.23;;;8.40;68.90;;;;;;5056772;28;20216;-96
2022/03/31 03:05:54;;;;;;;8.60;3.10;;;8.40;69.60;;;;;;5056450;28;20210;-94
2022/03/31 03:08:23;;;;;;;10.30;3.57;;;8.40;69.80;;;;;;5050377;28;20200;-91
2022/03/31 03:11:04;;;;;;;11.60;3.80;;;8.30;69.40;;;;;;5043204;28;20293;-93
2022/03/31 03:13:35;;;;;;;12.00;3.73;;;8.30;70.40;;;;;;5048771;28;20206;-94
2022/03/31 03:16:05;;;;;;;7.80;3.10;;;8.30;69.60;;;;;;5040179;28;20886;-96
2022/03/31 03:19:04;;;;;;;12.57;3.93;;;8.30;70.00;;;;;;5041781;28;20212;-93
2022/03/31 03:21:32;;;;;;;12.70;3.70;;;8.30;70.40;;;;;;5032421;28;20222;-95
2022/03/31 03:24:01;;;;;;;10.77;3.73;;;8.30;69.70;;;;;;5050707;28;20200;-91
2022/03/31 03:26:41;;;;;;;9.90;3.73;;;8.20;70.20;;;;;;5068135;28;20222;-93
2022/03/31 03:29:13;;;;;;;8.23;3.53;;;8.20;70.40;;;;;;5071243;28;20227;-94
2022/03/31 03:31:41;;;;;;;11.50;4.00;;;8.20;70.00;;;;;;5063607;28;20271;-90
2022/03/31 03:34:09;;;;;;;12.83;3.90;;;8.10;69.90;;;;;;5056811;28;20258;-92
2022/03/31 03:36:38;;;;;;;13.40;4.43;;;8.10;70.50;;;;;;5043279;28;20256;-94
2022/03/31 03:39:06;;;;;;;9.03;2.77;;;8.10;70.30;;;;;;5059865;28;20750;-90
2022/03/31 03:41:42;;;;;;;5.70;2.43;;;8.10;70.20;;;;;;5059699;28;20203;-94
2022/03/31 03:44:09;;;;;;;12.50;3.93;;;8.10;70.30;;;;;;5042356;28;20213;-95
2022/03/31 03:46:37;;;;;;;11.67;3.67;;;8.10;69.70;;;;;;5058663;28;20618;-92
2022/03/31 03:49:05;;;;;;;6.00;3.00;;;8.10;69.50;;;;;;5051412;28;20583;-96
2022/03/31 03:51:43;;;;;;;9.73;3.40;;;8.00;69.80;;;;;;5056058;28;20230;-96
2022/03/31 03:54:12;;;;;;;12.40;3.90;;;8.00;70.20;;;;;;5056932;28;20266;-95
2022/03/31 03:56:41;;;;;;;13.77;4.40;;;8.00;69.80;;;;;;5043594;28;20212;-91
2022/03/31 03:59:13;;;;;;;8.50;3.53;;;8.00;70.10;;;;;;5053931;28;20801;-94
2022/03/31 04:01:40;;;;;;;11.53;3.83;;;8.00;70.10;;;;;;5054654;28;20269;-92
2022/03/31 04:04:07;;;;;;;10.63;3.83;;;8.00;70.10;;;;;;5057047;28;20769;-95
2022/03/31 04:06:34;;;;;;;8.57;3.40;;;8.00;70.40;;;;;;5053999;28;20207;-94
2022/03/31 04:09:03;;;;;;;10.50;4.00;;;8.00;71.30;;;;;;5061413;28;20258;-93
2022/03/31 04:11:33;;;;;;;13.63;4.33;;;8.00;70.40;;;;;;5054654;28;20239;-93
2022/03/31 04:14:03;;;;;;;16.57;5.13;;;8.00;70.50;;;;;;5051010;28;20204;-96
2022/03/31 04:16:33;;;;;;;15.20;4.60;;;8.00;70.40;;;;;;5048400;28;20271;-95
2022/03/31 04:19:08;;;;;;;11.30;3.83;;;8.00;70.40;;;;;;5054507;28;20223;-96
2022/03/31 04:21:37;;;;;;;3.87;2.33;;;8.00;70.50;;;;;;5058191;28;20241;-95
2022/03/31 04:24:04;;;;;;;7.93;3.20;;;8.00;70.50;;;;;;5055608;28;20329;-96
2022/03/31 04:26:38;;;;;;;7.10;3.10;;;8.00;70.50;;;;;;5056668;28;20204;-94
2022/03/31 04:29:16;;;;;;;7.77;3.30;;;7.90;70.40;;;;;;5059664;28;20211;-96
2022/03/31 04:31:44;;;;;;;10.07;3.67;;;8.00;70.50;;;;;;5056983;28;20230;-96
2022/03/31 04:34:15;;;;;;;11.33;4.27;;;7.90;70.30;;;;;;5041090;28;20210;-90
2022/03/31 04:36:42;;;;;;;9.23;3.43;;;7.90;70.40;;;;;;5040218;28;20204;-92
2022/03/31 04:39:12;;;;;;;20.43;6.70;;;7.90;70.20;;;;;;5035454;28;20280;-95
2022/03/31 04:41:39;;;;;;;6.70;3.57;;;7.90;70.50;;;;;;5055534;28;20211;-94
2022/03/31 04:44:14;;;;;;;7.67;3.57;;;7.90;70.30;;;;;;5055991;28;20202;-96
2022/03/31 04:46:43;;;;;;;12.23;4.63;;;7.90;70.80;;;;;;5057074;28;20234;-94
2022/03/31 04:49:14;;;;;;;10.40;3.90;;;7.80;70.50;;;;;;5043555;28;20285;-93
2022/03/31 04:51:42;;;;;;;10.50;4.27;;;7.80;70.50;;;;;;5037823;28;20234;-95
2022/03/31 04:54:15;;;;;;;8.40;3.47;;;7.90;70.40;;;;;;5052900;28;20176;-96
2022/03/31 04:56:45;;;;;;;12.23;4.33;;;7.90;70.30;;;;;;5062346;28;20229;-95
2022/03/31 04:59:38;;;;;;;15.57;4.83;;;7.90;70.30;;;;;;5060893;28;20207;-95
2022/03/31 05:02:08;;;;;;;12.20;4.63;;;7.90;70.80;;;;;;5054795;28;20213;-94
2022/03/31 05:04:39;;;;;;;9.37;3.60;;;7.90;70.50;;;;;;5063852;28;20218;-95
2022/03/31 05:07:09;;;;;;;16.50;4.70;;;7.90;70.70;;;;;;5067831;28;20401;-95
2022/03/31 05:09:41;;;;;;;7.90;4.13;;;7.90;70.70;;;;;;5070527;28;20255;-95
2022/03/31 05:12:12;;;;;;;10.10;4.40;;;7.90;70.80;;;;;;5064888;28;20245;-96
2022/03/31 05:14:46;;;;;;;7.20;3.80;;;7.90;70.70;;;;;;5068139;28;20262;-96
2022/03/31 05:17:14;;;;;;;12.27;4.70;;;7.90;70.80;;;;;;5059267;28;20280;-93
2022/03/31 05:19:43;;;;;;;13.53;5.07;;;7.90;70.50;;;;;;5056647;28;20643;-95
2022/03/31 05:22:13;;;;;;;13.33;5.40;;;7.90;70.40;;;;;;5056807;28;20687;-95
2022/03/31 05:24:41;;;;;;;18.10;5.23;;;7.90;70.30;;;;;;5069365;28;20200;-93
2022/03/31 05:27:15;;;;;;;11.47;5.40;;;7.90;70.30;;;;;;5069365;28;20200;-96
2022/03/31 05:29:54;;;;;;;9.63;4.57;;;7.90;70.70;;;;;;5064778;28;20200;-96
2022/03/31 05:32:27;;;;;;;9.33;4.83;;;7.90;70.70;;;;;;5063834;28;20252;-96
2022/03/31 05:34:56;;;;;;;8.70;4.30;;;7.90;70.50;;;;;;5064935;28;20200;-96
2022/03/31 05:37:27;;;;;;;10.90;5.17;;;7.90;70.40;;;;;;5063218;28;20724;-95
2022/03/31 05:39:58;;;;;;;11.07;4.73;;;7.90;70.70;;;;;;5065459;28;20340;-95
2022/03/31 05:42:26;;;;;;;12.13;5.27;;;7.90;70.40;;;;;;5063668;28;20200;-95
2022/03/31 05:44:59;;;;;;;12.40;4.80;;;7.90;70.40;;;;;;5045842;28;20603;-96
2022/03/31 05:47:30;;;;;;;9.87;4.27;;;7.90;71.50;;;;;;5049383;28;20205;-95
2022/03/31 05:50:00;;;;;;;9.07;4.17;;;7.90;70.40;;;;;;5037304;28;20675;-95
2022/03/31 05:52:59;;;;;;;11.60;5.13;;;7.90;70.50;;;;;;5056056;28;20322;-94
2022/03/31 05:55:40;;;;;;;12.93;5.33;;;7.90;70.80;;;;;;5068447;28;20978;-95
2022/03/31 05:58:11;;;;;;;13.07;5.30;;;7.90;70.30;;;;;;5065726;28;20203;-94
2022/03/31 06:00:52;;;;;;;10.33;4.43;;;7.90;70.40;;;;;;5060561;28;20301;-95
2022/03/31 06:03:23;;;;;;;9.93;4.27;;;7.90;70.70;;;;;;5038410;28;20240;-95
2022/03/31 06:05:52;;;;;;;10.37;4.83;;;8.00;70.50;;;;;;5055890;28;20241;-95
2022/03/31 06:08:19;;;;;;;12.43;5.47;;;8.00;70.50;;;;;;5055674;28;20239;-96
2022/03/31 06:10:52;;;;;;;13.37;5.30;;;8.00;70.50;;;;;;5051297;28;20204;-95
2022/03/31 06:13:22;;;;;;;13.07;5.33;;;8.00;70.70;;;;;;5055920;28;20204;-95
2022/03/31 06:15:52;;;;;;;8.47;4.37;;;8.00;70.50;;;;;;5053963;28;20256;-94
2022/03/31 06:18:19;;;;;;;26.87;7.23;;;8.00;70.70;;;;;;5053190;28;20216;-95
2022/03/31 06:20:47;;;;;;;60.53;10.03;;;8.10;70.60;;;;;;5056590;28;20282;-94
2022/03/31 06:23:14;;;;;;;34.07;8.93;;;8.10;70.70;;;;;;5056957;28;20288;-94
2022/03/31 06:25:44;;;;;;;78.40;14.83;;;8.10;70.80;;;;;;5052483;28;20223;-94
2022/03/31 06:28:15;;;;;;;101.70;14.33;;;8.10;70.90;;;;;;5052723;28;20644;-95
2022/03/31 06:30:42;;;;;;;25.20;7.90;;;8.20;71.00;;;;;;5055852;28;20200;-95
2022/03/31 06:33:11;;;;;;;83.87;12.33;;;8.20;70.80;;;;;;5053840;28;20655;-95
2022/03/31 06:35:39;;;;;;;22.67;6.33;;;8.20;70.90;;;;;;5056424;28;20197;-96
2022/03/31 06:38:07;;;;;;;55.87;10.60;;;8.20;71.10;;;;;;5051608;28;20368;-96
2022/03/31 06:40:41;;;;;;;163.17;19.47;;;8.30;71.20;;;;;;5058655;28;20211;-95
2022/03/31 06:43:12;;;;;;;23.97;6.30;;;8.30;71.60;;;;;;5054761;28;20193;-96
2022/03/31 06:45:40;;;;;;;50.03;8.97;;;8.30;71.20;;;;;;5058333;28;20200;-95
2022/03/31 06:48:08;;;;;;;30.37;5.90;;;8.40;71.30;;;;;;5059298;28;20232;-96
2022/03/31 06:50:40;;;;;;;46.27;7.47;;;8.40;71.30;;;;;;5053922;28;20200;-96
2022/03/31 06:53:07;;;;;;;36.17;6.43;;;8.40;71.80;;;;;;5056890;28;20263;-94
2022/03/31 06:55:37;;;;;;;66.57;10.27;;;8.50;71.40;;;;;;5055398;28;20204;-96
2022/03/31 06:58:05;;;;;;;54.87;10.57;;;8.40;71.40;;;;;;5055841;28;20200;-95
2022/03/31 07:00:38;;;;;;;37.27;7.93;;;8.50;71.40;;;;;;5056371;28;20212;-94
2022/03/31 07:03:06;;;;;;;47.47;7.27;;;8.40;71.90;;;;;;5055950;28;20236;-94
2022/03/31 07:05:38;;;;;;;27.30;6.37;;;8.40;71.60;;;;;;5056040;28;20897;-95
2022/03/31 07:08:06;;;;;;;23.27;5.17;;;8.50;72.10;;;;;;5056141;28;20220;-94
2022/03/31 07:10:34;;;;;;;31.33;5.70;;;8.50;72.10;;;;;;5056566;28;20647;-94
2022/03/31 07:13:01;;;;;;;19.97;5.53;;;8.50;72.30;;;;;;5056592;28;20235;-94
2022/03/31 07:15:29;;;;;;;47.47;7.30;;;8.50;72.30;;;;;;5057479;28;20196;-95
2022/03/31 07:18:03;;;;;;;21.90;4.80;;;8.50;72.50;;;;;;5049559;28;20291;-95
2022/03/31 07:20:30;;;;;;;26.90;5.93;;;8.60;72.60;;;;;;5054929;28;20291;-96
2022/03/31 07:23:06;;;;;;;26.50;5.90;;;8.60;72.40;;;;;;5055717;28;20262;-96
2022/03/31 07:25:42;;;;;;;49.83;8.20;;;8.60;72.70;;;;;;5055572;28;20214;-95
2022/03/31 07:28:09;;;;;;;13.23;4.47;;;8.60;72.70;;;;;;5056121;28;20205;-95
2022/03/31 07:30:37;;;;;;;29.87;5.53;;;8.60;72.50;;;;;;5055520;28;20204;-95
2022/03/31 07:33:26;;;;;;;14.43;4.33;;;8.70;72.70;;;;;;5053696;28;20261;-95
2022/03/31 07:35:53;;;;;;;25.23;5.97;;;8.70;72.70;;;;;;5055409;28;20207;-94
2022/03/31 07:38:25;;;;;;;17.17;4.37;;;8.70;72.70;;;;;;5055504;28;20219;-93
2022/03/31 07:40:52;;;;;;;61.67;9.73;;;8.80;73.20;;;;;;5055051;28;20206;-93
2022/03/31 07:43:20;;;;;;;12.13;4.67;;;8.80;73.00;;;;;;5054283;28;20328;-95
2022/03/31 07:45:47;;;;;;;29.97;6.57;;;8.80;72.80;;;;;;5052356;28;20337;-96
2022/03/31 07:48:16;;;;;;;14.00;4.87;;;8.80;72.70;;;;;;5052674;28;20230;-96
2022/03/31 07:50:44;;;;;;;7.20;3.77;;;8.90;72.60;;;;;;5055299;28;20207;-94
2022/03/31 07:53:17;;;;;;;17.27;4.93;;;8.90;72.50;;;;;;5054957;28;20309;-96
2022/03/31 07:55:46;;;;;;;8.47;3.93;;;8.90;72.60;;;;;;5056541;28;20192;-96
2022/03/31 07:58:15;;;;;;;6.50;3.97;;;8.90;72.50;;;;;;5055430;28;20218;-95
2022/03/31 08:00:43;;;;;;;11.47;4.47;;;8.90;72.60;;;;;;5051608;28;20201;-96
2022/03/31 08:03:10;;;;;;;26.73;6.83;;;8.90;72.50;;;;;;5037441;28;20220;-94
2022/03/31 08:05:39;;;;;;;26.97;6.33;;;9.00;72.40;;;;;;5042571;28;20192;-96
2022/03/31 08:08:07;;;;;;;24.33;5.10;;;9.00;72.60;;;;;;5055075;28;20250;-95
2022/03/31 08:10:35;;;;;;;24.40;5.57;;;9.10;72.50;;;;;;5071206;28;20183;-96
2022/03/31 08:13:09;;;;;;;27.97;6.63;;;9.10;72.50;;;;;;5073402;28;20246;-95
2022/03/31 08:15:39;;;;;;;35.70;5.90;;;9.10;72.80;;;;;;5058238;28;20203;-95
2022/03/31 08:18:07;;;;;;;8.30;3.40;;;9.20;73.00;;;;;;5056317;28;20715;-94
2022/03/31 08:20:40;;;;;;;25.00;6.27;;;9.20;72.50;;;;;;5048841;28;20602;-92
2022/03/31 08:23:08;;;;;;;21.13;4.20;;;9.20;72.70;;;;;;5052546;28;20196;-92
2022/03/31 08:25:36;;;;;;;8.03;2.73;;;9.30;71.80;;;;;;5052412;28;20212;-92
2022/03/31 08:28:05;;;;;;;16.90;4.47;;;9.30;71.20;;;;;;5051744;28;20200;-95
2022/03/31 08:30:34;;;;;;;12.13;3.50;;;9.30;70.70;;;;;;5052162;28;20656;-94
2022/03/31 08:33:01;;;;;;;7.77;2.40;;;9.30;70.40;;;;;;5053623;28;20581;-96
2022/03/31 08:35:28;;;;;;;13.17;3.37;;;9.30;70.10;;;;;;5054532;28;20664;-96
2022/03/31 08:37:56;;;;;;;14.27;4.10;;;9.40;70.20;;;;;;5053675;28;20205;-93
2022/03/31 08:40:23;;;;;;;15.57;3.67;;;9.40;70.30;;;;;;5052851;28;20208;-93
2022/03/31 08:42:52;;;;;;;11.53;2.60;;;9.40;70.40;;;;;;5051352;28;20208;-93
2022/03/31 08:45:21;;;;;;;12.97;3.47;;;9.50;70.50;;;;;;5053613;28;20262;-94
2022/03/31 08:47:51;;;;;;;11.73;3.47;;;9.50;70.60;;;;;;5052226;28;20239;-93
2022/03/31 08:50:20;;;;;;;19.20;4.83;;;9.60;70.00;;;;;;5046173;28;20223;-94
2022/03/31 08:52:49;;;;;;;11.03;2.87;;;9.70;69.80;;;;;;5048654;28;20297;-94
2022/03/31 08:55:16;;;;;;;13.07;3.13;;;9.70;69.20;;;;;;5052922;28;20535;-94
2022/03/31 08:57:50;;;;;;;14.77;4.07;;;9.80;69.60;;;;;;5051826;28;20315;-93
2022/03/31 09:00:25;;;;;;;26.47;6.10;;;9.90;69.40;;;;;;5053254;28;20216;-93
2022/03/31 09:02:59;;;;;;;27.40;9.93;;;10.00;67.60;;;;;;5054052;28;20219;-91
2022/03/31 09:05:28;;;;;;;42.53;16.67;;;10.10;67.30;;;;;;5050731;28;20205;-92
2022/03/31 09:07:57;;;;;;;45.50;11.87;;;10.30;66.50;;;;;;5050938;28;20291;-95
2022/03/31 09:10:30;;;;;;;11.20;3.53;;;10.30;66.00;;;;;;5048558;28;20219;-96
2022/03/31 09:12:58;;;;;;;5.93;2.13;;;10.40;64.90;;;;;;5053891;28;20233;-92
2022/03/31 09:15:38;;;;;;;158.83;16.53;;;10.50;64.40;;;;;;5051055;28;20541;-95
2022/03/31 09:18:07;;;;;;;20.10;5.37;;;10.60;64.00;;;;;;5051459;28;20663;-93
2022/03/31 09:20:39;;;;;;;24.10;5.13;;;10.60;63.80;;;;;;5051028;28;20206;-93
2022/03/31 09:23:06;;;;;;;15.77;4.23;;;10.70;63.70;;;;;;5050973;28;20300;-96
2022/03/31 09:25:34;;;;;;;18.10;4.60;;;10.70;64.20;;;;;;5049197;28;20294;-94
2022/03/31 09:28:18;;;;;;;60.23;9.70;;;10.70;64.20;;;;;;5043984;28;20231;-95
2022/03/31 09:30:51;;;;;;;12.47;2.93;;;10.80;64.20;;;;;;5033441;28;20241;-92
2022/03/31 09:33:33;;;;;;;12.27;3.33;;;10.80;64.40;;;;;;5051537;28;20712;-96
2022/03/31 09:36:02;;;;;;;15.93;3.43;;;10.90;64.60;;;;;;5053131;28;20221;-92
2022/03/31 09:38:29;;;;;;;12.37;2.90;;;10.90;64.40;;;;;;5051042;28;20311;-93
2022/03/31 09:40:58;;;;;;;12.57;3.17;;;11.00;64.60;;;;;;5050780;28;20264;-90
2022/03/31 09:43:25;;;;;;;13.13;3.23;;;11.10;63.50;;;;;;5050493;28;20239;-92
2022/03/31 09:45:57;;;;;;;15.50;4.40;;;11.20;62.80;;;;;;5049890;28;20238;-91
2022/03/31 09:48:25;;;;;;;36.07;14.80;;;11.20;62.00;;;;;;5051248;28;21009;-92
2022/03/31 09:50:55;;;;;;;15.27;4.10;;;11.20;62.00;;;;;;5048428;28;20216;-92
2022/03/31 09:53:27;;;;;;;8.57;2.87;;;11.20;62.00;;;;;;5049705;28;20217;-93
2022/03/31 09:56:02;;;;;;;15.13;4.10;;;11.20;61.90;;;;;;5051483;28;20630;-92
2022/03/31 09:58:34;;;;;;;8.63;2.60;;;11.30;61.40;;;;;;5048055;28;20216;-94
2022/03/31 10:01:06;;;;;;;14.17;4.20;;;11.20;61.90;;;;;;5039560;28;20624;-92
2022/03/31 10:03:34;;;;;;;12.93;3.80;;;11.20;62.10;;;;;;5039077;28;20197;-91
2022/03/31 10:06:02;;;;;;;23.77;5.33;;;11.30;62.80;;;;;;5036920;28;20288;-92
2022/03/31 10:08:34;;;;;;;14.37;3.87;;;11.30;63.70;;;;;;5040942;28;20243;-91
2022/03/31 10:11:01;;;;;;;12.70;3.77;;;11.40;63.30;;;;;;5038113;28;20195;-92
2022/03/31 10:13:36;;;;;;;13.43;3.53;;;11.60;63.20;;;;;;5038267;28;20224;-92
2022/03/31 10:16:09;;;;;;;12.37;3.93;;;11.80;61.80;;;;;;5038536;28;20226;-91
2022/03/31 10:18:37;;;;;;;9.07;2.90;;;12.00;60.80;;;;;;5038959;28;20223;-91
2022/03/31 10:21:04;;;;;;;12.00;3.20;;;12.10;60.10;;;;;;5038224;28;20353;-91
2022/03/31 10:26:23;;;;;;;9.87;2.53;;;12.50;60.40;;;;;;5043134;28;20283;-92
2022/03/31 10:28:58;;;;;;;13.43;3.53;;;12.80;59.50;;;;;;5039158;28;20848;-91
2022/03/31 10:31:38;;;;;;;8.37;2.50;;;13.00;59.50;;;;;;5038730;28;20246;-91
2022/03/31 10:34:09;;;;;;;12.93;3.73;;;13.10;58.30;;;;;;5039393;28;20239;-93
2022/03/31 10:36:39;;;;;;;10.33;2.90;;;13.20;58.00;;;;;;5040739;28;20188;-92
2022/03/31 10:39:08;;;;;;;14.67;3.43;;;13.40;57.00;;;;;;5041987;28;20607;-93
2022/03/31 10:41:37;;;;;;;9.97;2.87;;;13.40;56.10;;;;;;5038858;28;20197;-92
2022/03/31 10:44:16;;;;;;;7.90;2.43;;;13.50;56.90;;;;;;5039700;28;20192;-93
2022/03/31 10:47:00;;;;;;;8.23;2.23;;;13.60;57.20;;;;;;5038672;28;20192;-92
2022/03/31 10:49:27;;;;;;;11.00;3.63;;;13.70;57.70;;;;;;5037768;28;20220;-92
2022/03/31 10:51:54;;;;;;;11.40;3.40;;;13.80;56.30;;;;;;5037814;28;20205;-93
2022/03/31 10:54:27;;;;;;;10.77;3.23;;;14.00;56.10;;;;;;5037320;28;20239;-93
2022/03/31 10:57:08;;;;;;;10.23;3.20;;;14.10;55.40;;;;;;5037174;28;20205;-91
2022/03/31 10:59:37;;;;;;;12.30;3.90;;;14.30;54.30;;;;;;5037255;28;20275;-91
2022/03/31 11:02:11;;;;;;;11.47;3.13;;;14.40;55.20;;;;;;5036657;28;20220;-92
2022/03/31 11:04:48;;;;;;;10.13;2.80;;;14.50;54.30;;;;;;5040051;28;20682;-93
2022/03/31 11:07:28;;;;;;;17.97;3.63;;;14.70;53.80;;;;;;5041949;28;20197;-96
2022/03/31 11:10:01;;;;;;;22.50;6.23;;;14.80;53.40;;;;;;5038699;28;20286;-92
2022/03/31 11:12:53;;;;;;;32.20;6.40;;;14.90;53.20;;;;;;5041277;28;20264;-95
2022/03/31 11:15:24;;;;;;;9.97;2.73;;;15.00;52.30;;;;;;5046350;28;20211;-91
2022/03/31 11:18:01;;;;;;;20.23;4.93;;;15.00;53.80;;;;;;5041489;28;20646;-95
2022/03/31 11:20:28;;;;;;;16.83;3.47;;;15.00;51.80;;;;;;5044479;28;20207;-95
2022/03/31 11:23:15;;;;;;;17.03;4.13;;;15.00;52.90;;;;;;5041202;28;20199;-93
2022/03/31 11:25:44;;;;;;;27.63;9.87;;;15.00;51.60;;;;;;5043541;28;20244;-92
2022/03/31 11:28:16;;;;;;;17.70;6.17;;;15.00;52.40;;;;;;5040973;28;20250;-92
2022/03/31 11:30:48;;;;;;;39.60;20.83;;;15.00;52.10;;;;;;5044144;28;20201;-96
2022/03/31 11:33:17;;;;;;;28.17;17.43;;;15.00;50.70;;;;;;5047642;28;20239;-92
2022/03/31 11:35:45;;;;;;;32.47;18.03;;;15.00;50.90;;;;;;5042487;28;20291;-93
2022/03/31 11:38:17;;;;;;;59.53;25.30;;;15.10;50.10;;;;;;5045074;28;20270;-95
2022/03/31 11:40:46;;;;;;;38.07;14.27;;;15.10;51.00;;;;;;5042612;28;20209;-93
2022/03/31 11:43:15;;;;;;;30.53;10.87;;;15.10;51.60;;;;;;5044637;28;20794;-92
2022/03/31 11:45:46;;;;;;;18.90;7.50;;;15.20;51.70;;;;;;5042090;28;20766;-93
2022/03/31 11:54:23;;;;;;;12.73;5.13;;;15.40;51.40;;;;;;5042470;28;20233;-96
2022/03/31 11:57:10;;;;;;;30.97;9.50;;;15.40;50.90;;;;;;5051551;28;20211;-96
2022/03/31 11:59:44;;;;;;;11.17;5.20;;;15.40;51.00;;;;;;5053096;28;20195;-96
2022/03/31 12:02:14;;;;;;;25.17;6.53;;;15.40;50.20;;;;;;5042620;28;20747;-95
2022/03/31 12:04:44;;;;;;;12.53;4.07;;;15.40;50.40;;;;;;5042777;28;20540;-94
2022/03/31 12:07:55;;;;;;;11.53;3.60;;;15.30;50.00;;;;;;5045740;28;20227;-93
2022/03/31 12:10:29;;;;;;;8.23;2.43;;;15.20;49.60;;;;;;5040710;28;20206;-95
2022/03/31 12:13:01;;;;;;;11.07;3.20;;;15.20;50.30;;;;;;5042014;28;20696;-95
2022/03/31 12:15:32;;;;;;;17.33;5.07;;;15.10;49.90;;;;;;5044277;28;20737;-95
2022/03/31 12:18:06;;;;;;;48.77;8.97;;;15.10;49.90;;;;;;5042504;28;20617;-94
2022/03/31 12:20:41;;;;;;;58.17;7.83;;;15.10;50.30;;;;;;5044913;28;20258;-91
2022/03/31 12:23:23;;;;;;;40.93;6.97;;;15.10;50.60;;;;;;5042713;28;20203;-92
2022/03/31 12:25:51;;;;;;;35.90;7.23;;;15.10;49.70;;;;;;5040115;28;20206;-92
2022/03/31 12:28:25;;;;;;;16.20;4.50;;;15.00;50.20;;;;;;5041862;28;20233;-95
2022/03/31 12:30:57;;;;;;;50.33;8.17;;;15.00;50.40;;;;;;5039999;28;20221;-94
2022/03/31 12:33:28;;;;;;;36.60;8.13;;;15.00;50.80;;;;;;5043015;28;20285;-94
2022/03/31 12:36:02;;;;;;;36.73;7.73;;;15.00;50.60;;;;;;5053749;28;20201;-96
2022/03/31 12:38:43;;;;;;;16.90;3.40;;;15.00;50.70;;;;;;5045443;28;20194;-93
2022/03/31 12:41:17;;;;;;;14.73;3.60;;;15.10;50.60;;;;;;5043309;28;20235;-92
2022/03/31 12:43:56;;;;;;;12.53;3.90;;;15.10;50.40;;;;;;5045948;28;20202;-95
2022/03/31 12:46:29;;;;;;;13.30;3.73;;;15.10;50.80;;;;;;5046349;28;20196;-92
2022/03/31 12:49:00;;;;;;;23.20;5.27;;;15.10;51.00;;;;;;5042208;28;20201;-92
2022/03/31 12:51:29;;;;;;;22.50;5.17;;;15.10;50.70;;;;;;5042927;28;20185;-96
2022/03/31 12:54:01;;;;;;;11.70;3.43;;;15.10;50.40;;;;;;5041989;28;20230;-92
2022/03/31 12:56:29;;;;;;;6.23;2.40;;;15.10;50.60;;;;;;5052831;28;20225;-93
2022/03/31 12:59:01;;;;;;;12.80;4.03;;;15.00;50.90;;;;;;5045448;28;20209;-91
2022/03/31 13:01:28;;;;;;;10.37;2.93;;;14.80;50.40;;;;;;5044974;28;20667;-94
2022/03/31 13:03:55;;;;;;;8.07;3.07;;;14.70;50.90;;;;;;5043679;28;20204;-93
2022/03/31 13:06:23;;;;;;;13.27;4.07;;;14.50;51.20;;;;;;5041447;28;20205;-95
2022/03/31 13:08:51;;;;;;;17.47;4.00;;;14.30;51.00;;;;;;5041285;28;20734;-93
2022/03/31 13:11:22;;;;;;;15.53;3.37;;;14.10;50.90;;;;;;5044028;28;20280;-91
2022/03/31 13:16:44;;;;;;;7.93;2.60;;;13.60;52.00;;;;;;5073818;23;20242;-94
2022/03/31 13:19:16;;;;;;;10.97;3.20;;;13.50;53.10;;;;;;5066850;28;20713;-94
2022/03/31 13:21:43;;;;;;;11.17;3.07;;;13.40;53.40;;;;;;5069873;28;20207;-91
2022/03/31 13:24:12;;;;;;;21.13;4.67;;;13.30;53.70;;;;;;5070267;28;20207;-95
2022/03/31 13:26:50;;;;;;;10.93;3.30;;;13.30;53.90;;;;;;5071492;28;20227;-91